Airfield :







YOU CAN JOIN US ON...

 
LOGIN :

Register | Disclaimer

   EN    FR    IT 

 









Legend :    VFR   Marginal VFR   IFR   Intensive IFR   Very Intensive IFR
Visi :
Ceiling :
>= 8 km
>= 3000ft
5 to 8 km
1000 to 3000 ft
1500m to 5 km
500 to 1000 ft
800 to 1500m
200 to 500 ft
< 800m
< 200 ft
Symbols :   Thunderstorms  Fog  Heavy snow  Heavy precipitations  Wind > 20 kt






- Airport Elevation : 335 ft
- IATA code : BTV


KBTV - Burlington International

CURRENT METAR :
  • 050554Z 11003KT 10SM FEW060 OVC110 19/14 A3015 RMK AO2 SLP208 T01940144 10256 20189 58001

EXPIRED METARs :
  • 050454Z 00000KT 10SM OVC065 19/14 A3016 RMK AO2 SLP211 T01940144 402780139
  • 050354Z 17004KT 10SM FEW060 20/13 A3016 RMK AO2 SLP212 LAST T02000133

TAF KBTV
Valid from the 05 at 06:00 until the 06 at 06:00 UTC


050525Z 0506/0606 VRB03KT P6SM SCT060
TEMPO 0506/0510 BKN060
FM051400 33004KT P6SM FEW060 SCT100
FM060000 VRB03KT P6SM FEW100
KZBW FIR / North America



MET'MAP, your aeronautical weather chart ! - Copyright ORBIFLY December 2007 - Disclaimer

ORBIFLY MET'MAP TEAM :

Programming & Development : Alexandra Zaïnal
Concept & original design : Baudouin d'Aumeries
Assistance for programming : Marc-Olivier Méhu
Technical & hardware support : Manuel Goepfert

Contact : metmap@orbifly.com




SOURCES & CREDITS :

   NOAA